sensor_id;sensor_type;location;lat;lon;timestamp;P1;durP1;ratioP1;P2;durP2;ratioP2
29246;SDS011;16272;48.188;9.964;2022-10-31T00:00:20;9.43;;;4.10;;
29246;SDS011;16272;48.188;9.964;2022-10-31T00:02:45;11.20;;;4.97;;
29246;SDS011;16272;48.188;9.964;2022-10-31T00:05:11;13.13;;;4.77;;
29246;SDS011;16272;48.188;9.964;2022-10-31T00:07:36;16.00;;;4.88;;
29246;SDS011;16272;48.188;9.964;2022-10-31T00:10:02;10.73;;;4.67;;
29246;SDS011;16272;48.188;9.964;2022-10-31T00:12:27;9.97;;;4.40;;
29246;SDS011;16272;48.188;9.964;2022-10-31T00:14:53;10.77;;;4.40;;
29246;SDS011;16272;48.188;9.964;2022-10-31T00:17:18;10.47;;;4.37;;
29246;SDS011;16272;48.188;9.964;2022-10-31T00:19:43;13.67;;;4.97;;
29246;SDS011;16272;48.188;9.964;2022-10-31T00:22:08;11.77;;;4.57;;
29246;SDS011;16272;48.188;9.964;2022-10-31T00:24:34;12.10;;;4.13;;
29246;SDS011;16272;48.188;9.964;2022-10-31T00:26:59;13.63;;;4.80;;
29246;SDS011;16272;48.188;9.964;2022-10-31T00:29:24;10.70;;;4.40;;
29246;SDS011;16272;48.188;9.964;2022-10-31T00:31:50;10.30;;;4.30;;
29246;SDS011;16272;48.188;9.964;2022-10-31T00:34:16;11.05;;;3.97;;
29246;SDS011;16272;48.188;9.964;2022-10-31T00:36:42;10.67;;;4.37;;
29246;SDS011;16272;48.188;9.964;2022-10-31T00:39:07;13.83;;;4.73;;
29246;SDS011;16272;48.188;9.964;2022-10-31T00:41:32;12.80;;;4.50;;
29246;SDS011;16272;48.188;9.964;2022-10-31T00:43:58;14.98;;;5.22;;
29246;SDS011;16272;48.188;9.964;2022-10-31T00:46:23;11.53;;;5.13;;
29246;SDS011;16272;48.188;9.964;2022-10-31T00:48:48;13.17;;;5.57;;
29246;SDS011;16272;48.188;9.964;2022-10-31T00:51:14;13.17;;;5.10;;
29246;SDS011;16272;48.188;9.964;2022-10-31T00:53:39;12.33;;;5.17;;
29246;SDS011;16272;48.188;9.964;2022-10-31T00:56:04;12.63;;;4.90;;
29246;SDS011;16272;48.188;9.964;2022-10-31T00:58:30;11.75;;;5.03;;
29246;SDS011;16272;48.188;9.964;2022-10-31T01:00:55;11.00;;;4.60;;
29246;SDS011;16272;48.188;9.964;2022-10-31T01:03:25;12.07;;;4.80;;
29246;SDS011;16272;48.188;9.964;2022-10-31T01:05:57;11.60;;;4.75;;
29246;SDS011;16272;48.188;9.964;2022-10-31T01:08:23;11.20;;;4.40;;
29246;SDS011;16272;48.188;9.964;2022-10-31T01:10:57;10.13;;;4.40;;
29246;SDS011;16272;48.188;9.964;2022-10-31T01:13:27;11.20;;;4.35;;
29246;SDS011;16272;48.188;9.964;2022-10-31T01:15:55;11.63;;;4.77;;
29246;SDS011;16272;48.188;9.964;2022-10-31T01:18:24;12.30;;;4.50;;
29246;SDS011;16272;48.188;9.964;2022-10-31T01:23:32;12.68;;;4.72;;
29246;SDS011;16272;48.188;9.964;2022-10-31T01:25:58;13.00;;;4.80;;
29246;SDS011;16272;48.188;9.964;2022-10-31T01:28:28;11.50;;;4.70;;
29246;SDS011;16272;48.188;9.964;2022-10-31T01:30:53;10.80;;;4.43;;
29246;SDS011;16272;48.188;9.964;2022-10-31T01:33:18;13.33;;;5.00;;
29246;SDS011;16272;48.188;9.964;2022-10-31T01:35:44;14.27;;;5.17;;
29246;SDS011;16272;48.188;9.964;2022-10-31T01:38:09;12.77;;;5.07;;
29246;SDS011;16272;48.188;9.964;2022-10-31T01:40:34;11.77;;;4.60;;
29246;SDS011;16272;48.188;9.964;2022-10-31T01:42:59;10.87;;;4.83;;
29246;SDS011;16272;48.188;9.964;2022-10-31T01:45:25;12.10;;;5.13;;
29246;SDS011;16272;48.188;9.964;2022-10-31T01:47:50;13.33;;;5.67;;
29246;SDS011;16272;48.188;9.964;2022-10-31T01:50:37;13.45;;;4.88;;
29246;SDS011;16272;48.188;9.964;2022-10-31T01:53:03;11.27;;;5.40;;
29246;SDS011;16272;48.188;9.964;2022-10-31T01:55:33;13.30;;;5.53;;
29246;SDS011;16272;48.188;9.964;2022-10-31T01:58:03;11.60;;;5.10;;
29246;SDS011;16272;48.188;9.964;2022-10-31T02:00:32;13.27;;;5.22;;
29246;SDS011;16272;48.188;9.964;2022-10-31T02:02:57;12.33;;;5.30;;
29246;SDS011;16272;48.188;9.964;2022-10-31T02:05:24;15.55;;;5.80;;
29246;SDS011;16272;48.188;9.964;2022-10-31T02:10:21;12.82;;;5.43;;
29246;SDS011;16272;48.188;9.964;2022-10-31T02:12:48;11.37;;;5.30;;
29246;SDS011;16272;48.188;9.964;2022-10-31T02:15:17;11.88;;;5.15;;
29246;SDS011;16272;48.188;9.964;2022-10-31T02:17:43;12.27;;;5.10;;
29246;SDS011;16272;48.188;9.964;2022-10-31T02:47:16;11.50;;;4.82;;
29246;SDS011;16272;48.188;9.964;2022-10-31T02:50:02;11.15;;;4.63;;
29246;SDS011;16272;48.188;9.964;2022-10-31T02:52:31;11.23;;;4.80;;
29246;SDS011;16272;48.188;9.964;2022-10-31T02:54:57;12.27;;;5.20;;
29246;SDS011;16272;48.188;9.964;2022-10-31T02:57:24;12.02;;;5.13;;
29246;SDS011;16272;48.188;9.964;2022-10-31T02:59:55;12.15;;;5.22;;
29246;SDS011;16272;48.188;9.964;2022-10-31T03:08:11;10.77;;;4.43;;
29246;SDS011;16272;48.188;9.964;2022-10-31T03:10:51;13.30;;;5.28;;
29246;SDS011;16272;48.188;9.964;2022-10-31T03:15:48;12.17;;;4.97;;
29246;SDS011;16272;48.188;9.964;2022-10-31T03:21:08;12.65;;;4.80;;
29246;SDS011;16272;48.188;9.964;2022-10-31T03:23:35;13.63;;;5.40;;
29246;SDS011;16272;48.188;9.964;2022-10-31T03:26:03;12.02;;;4.90;;
29246;SDS011;16272;48.188;9.964;2022-10-31T03:28:33;10.20;;;4.57;;
29246;SDS011;16272;48.188;9.964;2022-10-31T03:31:12;13.33;;;5.30;;
29246;SDS011;16272;48.188;9.964;2022-10-31T03:33:42;11.77;;;5.25;;
29246;SDS011;16272;48.188;9.964;2022-10-31T03:36:10;12.30;;;5.57;;
29246;SDS011;16272;48.188;9.964;2022-10-31T03:38:37;12.02;;;5.25;;
29246;SDS011;16272;48.188;9.964;2022-10-31T03:41:06;12.77;;;4.90;;
29246;SDS011;16272;48.188;9.964;2022-10-31T03:43:38;11.90;;;5.30;;
29246;SDS011;16272;48.188;9.964;2022-10-31T03:46:07;13.85;;;5.10;;
29246;SDS011;16272;48.188;9.964;2022-10-31T03:48:33;14.52;;;5.43;;
29246;SDS011;16272;48.188;9.964;2022-10-31T03:51:07;10.93;;;5.20;;
29246;SDS011;16272;48.188;9.964;2022-10-31T03:53:57;14.57;;;5.70;;
29246;SDS011;16272;48.188;9.964;2022-10-31T03:56:32;14.43;;;5.75;;
29246;SDS011;16272;48.188;9.964;2022-10-31T03:59:05;14.13;;;5.70;;
29246;SDS011;16272;48.188;9.964;2022-10-31T04:01:38;11.63;;;5.40;;
29246;SDS011;16272;48.188;9.964;2022-10-31T04:04:06;13.40;;;5.60;;
29246;SDS011;16272;48.188;9.964;2022-10-31T04:06:33;12.60;;;5.22;;
29246;SDS011;16272;48.188;9.964;2022-10-31T04:09:02;13.95;;;5.95;;
29246;SDS011;16272;48.188;9.964;2022-10-31T04:11:31;12.85;;;5.60;;
29246;SDS011;16272;48.188;9.964;2022-10-31T04:14:01;15.20;;;5.90;;
29246;SDS011;16272;48.188;9.964;2022-10-31T04:16:28;15.82;;;5.90;;
29246;SDS011;16272;48.188;9.964;2022-10-31T04:18:54;13.97;;;6.43;;
29246;SDS011;16272;48.188;9.964;2022-10-31T04:21:20;12.30;;;5.53;;
29246;SDS011;16272;48.188;9.964;2022-10-31T04:23:52;15.40;;;5.60;;
29246;SDS011;16272;48.188;9.964;2022-10-31T04:26:17;14.03;;;5.63;;
29246;SDS011;16272;48.188;9.964;2022-10-31T04:28:42;13.67;;;5.97;;
29246;SDS011;16272;48.188;9.964;2022-10-31T04:31:08;11.07;;;5.20;;
29246;SDS011;16272;48.188;9.964;2022-10-31T04:33:36;13.35;;;5.35;;
29246;SDS011;16272;48.188;9.964;2022-10-31T04:36:01;11.47;;;4.83;;
29246;SDS011;16272;48.188;9.964;2022-10-31T04:38:27;12.70;;;5.10;;
29246;SDS011;16272;48.188;9.964;2022-10-31T04:40:52;13.93;;;5.30;;
29246;SDS011;16272;48.188;9.964;2022-10-31T04:43:17;13.43;;;6.10;;
29246;SDS011;16272;48.188;9.964;2022-10-31T04:45:43;15.20;;;5.67;;
29246;SDS011;16272;48.188;9.964;2022-10-31T04:48:08;13.50;;;5.90;;
29246;SDS011;16272;48.188;9.964;2022-10-31T04:50:33;12.73;;;5.37;;
29246;SDS011;16272;48.188;9.964;2022-10-31T04:52:58;13.07;;;5.77;;
29246;SDS011;16272;48.188;9.964;2022-10-31T04:55:24;12.93;;;5.40;;
29246;SDS011;16272;48.188;9.964;2022-10-31T04:57:49;13.50;;;5.80;;
29246;SDS011;16272;48.188;9.964;2022-10-31T05:00:17;12.93;;;5.65;;
29246;SDS011;16272;48.188;9.964;2022-10-31T05:05:11;13.38;;;5.95;;
29246;SDS011;16272;48.188;9.964;2022-10-31T05:07:43;12.43;;;5.70;;
29246;SDS011;16272;48.188;9.964;2022-10-31T05:10:10;11.77;;;5.35;;
29246;SDS011;16272;48.188;9.964;2022-10-31T05:12:37;12.45;;;5.38;;
29246;SDS011;16272;48.188;9.964;2022-10-31T05:15:03;12.07;;;5.17;;
29246;SDS011;16272;48.188;9.964;2022-10-31T05:17:30;12.85;;;5.50;;
29246;SDS011;16272;48.188;9.964;2022-10-31T05:19:56;12.57;;;5.43;;
29246;SDS011;16272;48.188;9.964;2022-10-31T05:22:21;13.00;;;5.73;;
29246;SDS011;16272;48.188;9.964;2022-10-31T05:24:47;14.77;;;5.90;;
29246;SDS011;16272;48.188;9.964;2022-10-31T05:27:12;14.63;;;6.03;;
29246;SDS011;16272;48.188;9.964;2022-10-31T05:29:37;13.85;;;5.90;;
29246;SDS011;16272;48.188;9.964;2022-10-31T05:32:03;15.03;;;5.73;;
29246;SDS011;16272;48.188;9.964;2022-10-31T05:34:28;13.43;;;5.70;;
29246;SDS011;16272;48.188;9.964;2022-10-31T05:36:53;13.83;;;6.00;;
29246;SDS011;16272;48.188;9.964;2022-10-31T05:39:18;13.47;;;5.70;;
29246;SDS011;16272;48.188;9.964;2022-10-31T05:41:44;14.37;;;6.13;;
29246;SDS011;16272;48.188;9.964;2022-10-31T05:44:09;15.00;;;6.00;;
29246;SDS011;16272;48.188;9.964;2022-10-31T05:46:34;14.03;;;5.77;;
29246;SDS011;16272;48.188;9.964;2022-10-31T05:49:00;13.43;;;5.93;;
29246;SDS011;16272;48.188;9.964;2022-10-31T05:51:25;14.00;;;5.30;;
29246;SDS011;16272;48.188;9.964;2022-10-31T05:53:50;11.93;;;5.50;;
29246;SDS011;16272;48.188;9.964;2022-10-31T05:56:16;12.90;;;5.20;;
29246;SDS011;16272;48.188;9.964;2022-10-31T05:58:41;14.53;;;6.03;;
29246;SDS011;16272;48.188;9.964;2022-10-31T06:01:06;16.40;;;5.60;;
29246;SDS011;16272;48.188;9.964;2022-10-31T06:03:32;11.43;;;5.10;;
29246;SDS011;16272;48.188;9.964;2022-10-31T06:05:57;14.67;;;5.47;;
29246;SDS011;16272;48.188;9.964;2022-10-31T06:08:22;14.67;;;6.13;;
29246;SDS011;16272;48.188;9.964;2022-10-31T06:10:48;13.73;;;6.27;;
29246;SDS011;16272;48.188;9.964;2022-10-31T06:13:13;11.73;;;5.17;;
29246;SDS011;16272;48.188;9.964;2022-10-31T06:15:38;14.53;;;5.80;;
29246;SDS011;16272;48.188;9.964;2022-10-31T06:18:05;16.33;;;6.23;;
29246;SDS011;16272;48.188;9.964;2022-10-31T06:20:31;14.35;;;6.10;;
29246;SDS011;16272;48.188;9.964;2022-10-31T06:22:57;14.95;;;6.03;;
29246;SDS011;16272;48.188;9.964;2022-10-31T06:25:23;13.63;;;5.90;;
29246;SDS011;16272;48.188;9.964;2022-10-31T06:27:48;15.73;;;6.10;;
29246;SDS011;16272;48.188;9.964;2022-10-31T06:30:14;14.10;;;6.30;;
29246;SDS011;16272;48.188;9.964;2022-10-31T06:32:39;16.90;;;6.87;;
29246;SDS011;16272;48.188;9.964;2022-10-31T06:35:05;17.20;;;6.27;;
29246;SDS011;16272;48.188;9.964;2022-10-31T06:37:30;16.65;;;6.25;;
29246;SDS011;16272;48.188;9.964;2022-10-31T06:39:56;17.07;;;7.20;;
29246;SDS011;16272;48.188;9.964;2022-10-31T06:42:21;18.10;;;7.17;;
29246;SDS011;16272;48.188;9.964;2022-10-31T06:44:46;18.90;;;7.83;;
29246;SDS011;16272;48.188;9.964;2022-10-31T06:47:12;18.00;;;6.83;;
29246;SDS011;16272;48.188;9.964;2022-10-31T06:49:37;18.23;;;7.73;;
29246;SDS011;16272;48.188;9.964;2022-10-31T06:52:02;19.13;;;8.23;;
29246;SDS011;16272;48.188;9.964;2022-10-31T06:54:28;19.07;;;8.20;;
29246;SDS011;16272;48.188;9.964;2022-10-31T06:56:53;18.07;;;8.27;;
29246;SDS011;16272;48.188;9.964;2022-10-31T06:59:18;17.07;;;7.50;;
29246;SDS011;16272;48.188;9.964;2022-10-31T07:01:44;17.90;;;8.03;;
29246;SDS011;16272;48.188;9.964;2022-10-31T07:04:10;16.70;;;7.90;;
29246;SDS011;16272;48.188;9.964;2022-10-31T07:06:35;15.17;;;7.53;;
29246;SDS011;16272;48.188;9.964;2022-10-31T07:09:01;18.35;;;7.43;;
29246;SDS011;16272;48.188;9.964;2022-10-31T07:11:26;17.83;;;8.00;;
29246;SDS011;16272;48.188;9.964;2022-10-31T07:13:51;14.53;;;6.80;;
29246;SDS011;16272;48.188;9.964;2022-10-31T07:16:17;16.73;;;7.37;;
29246;SDS011;16272;48.188;9.964;2022-10-31T07:18:42;21.27;;;9.97;;
29246;SDS011;16272;48.188;9.964;2022-10-31T07:21:07;22.57;;;10.60;;
29246;SDS011;16272;48.188;9.964;2022-10-31T07:23:33;31.27;;;15.00;;
29246;SDS011;16272;48.188;9.964;2022-10-31T07:25:58;23.13;;;10.70;;
29246;SDS011;16272;48.188;9.964;2022-10-31T07:28:24;38.53;;;17.53;;
29246;SDS011;16272;48.188;9.964;2022-10-31T07:30:54;21.80;;;9.32;;
29246;SDS011;16272;48.188;9.964;2022-10-31T07:44:36;19.70;;;10.33;;
29246;SDS011;16272;48.188;9.964;2022-10-31T07:47:01;22.23;;;10.25;;
29246;SDS011;16272;48.188;9.964;2022-10-31T07:49:26;17.13;;;9.10;;
29246;SDS011;16272;48.188;9.964;2022-10-31T07:51:52;17.43;;;9.33;;
29246;SDS011;16272;48.188;9.964;2022-10-31T07:54:17;17.43;;;8.93;;
29246;SDS011;16272;48.188;9.964;2022-10-31T07:56:42;17.73;;;8.80;;
29246;SDS011;16272;48.188;9.964;2022-10-31T07:59:08;18.33;;;9.30;;
29246;SDS011;16272;48.188;9.964;2022-10-31T08:01:33;17.43;;;9.67;;
29246;SDS011;16272;48.188;9.964;2022-10-31T08:03:58;16.30;;;9.30;;
29246;SDS011;16272;48.188;9.964;2022-10-31T08:06:23;16.53;;;9.20;;
29246;SDS011;16272;48.188;9.964;2022-10-31T08:08:49;16.40;;;9.30;;
29246;SDS011;16272;48.188;9.964;2022-10-31T08:11:14;18.83;;;8.87;;
29246;SDS011;16272;48.188;9.964;2022-10-31T08:13:39;17.43;;;9.80;;
29246;SDS011;16272;48.188;9.964;2022-10-31T08:16:05;16.77;;;8.90;;
29246;SDS011;16272;48.188;9.964;2022-10-31T08:18:32;16.92;;;9.73;;
29246;SDS011;16272;48.188;9.964;2022-10-31T08:20:57;15.07;;;8.40;;
29246;SDS011;16272;48.188;9.964;2022-10-31T08:23:23;14.90;;;8.93;;
29246;SDS011;16272;48.188;9.964;2022-10-31T08:25:48;17.70;;;8.43;;
29246;SDS011;16272;48.188;9.964;2022-10-31T08:28:14;16.00;;;9.18;;
29246;SDS011;16272;48.188;9.964;2022-10-31T08:30:40;17.57;;;9.23;;
29246;SDS011;16272;48.188;9.964;2022-10-31T08:33:10;18.23;;;9.50;;
29246;SDS011;16272;48.188;9.964;2022-10-31T08:35:37;19.80;;;10.48;;
29246;SDS011;16272;48.188;9.964;2022-10-31T08:38:03;19.63;;;10.60;;
29246;SDS011;16272;48.188;9.964;2022-10-31T08:40:29;19.02;;;10.18;;
29246;SDS011;16272;48.188;9.964;2022-10-31T08:42:57;19.05;;;10.20;;
29246;SDS011;16272;48.188;9.964;2022-10-31T08:45:27;17.35;;;9.07;;
29246;SDS011;16272;48.188;9.964;2022-10-31T08:47:56;18.20;;;8.70;;
29246;SDS011;16272;48.188;9.964;2022-10-31T08:50:23;20.52;;;10.00;;
29246;SDS011;16272;48.188;9.964;2022-10-31T08:52:48;17.63;;;9.52;;
29246;SDS011;16272;48.188;9.964;2022-10-31T08:55:13;19.10;;;10.30;;
29246;SDS011;16272;48.188;9.964;2022-10-31T08:57:39;19.67;;;10.47;;
29246;SDS011;16272;48.188;9.964;2022-10-31T09:00:04;20.13;;;10.37;;
29246;SDS011;16272;48.188;9.964;2022-10-31T09:02:30;18.10;;;10.00;;
29246;SDS011;16272;48.188;9.964;2022-10-31T09:04:56;19.60;;;10.30;;
29246;SDS011;16272;48.188;9.964;2022-10-31T09:07:21;19.83;;;10.73;;
29246;SDS011;16272;48.188;9.964;2022-10-31T09:09:48;19.33;;;10.53;;
29246;SDS011;16272;48.188;9.964;2022-10-31T09:12:13;20.05;;;10.68;;
29246;SDS011;16272;48.188;9.964;2022-10-31T09:14:38;18.80;;;10.87;;
29246;SDS011;16272;48.188;9.964;2022-10-31T09:17:03;23.37;;;11.30;;
29246;SDS011;16272;48.188;9.964;2022-10-31T09:19:29;21.50;;;11.70;;
29246;SDS011;16272;48.188;9.964;2022-10-31T09:21:55;23.20;;;11.35;;
29246;SDS011;16272;48.188;9.964;2022-10-31T09:24:20;22.63;;;11.77;;
29246;SDS011;16272;48.188;9.964;2022-10-31T09:26:45;21.37;;;11.47;;
29246;SDS011;16272;48.188;9.964;2022-10-31T09:29:11;23.37;;;11.63;;
29246;SDS011;16272;48.188;9.964;2022-10-31T09:31:36;17.97;;;10.60;;
29246;SDS011;16272;48.188;9.964;2022-10-31T09:34:01;18.80;;;10.67;;
29246;SDS011;16272;48.188;9.964;2022-10-31T09:36:27;19.10;;;11.13;;
29246;SDS011;16272;48.188;9.964;2022-10-31T09:38:53;18.15;;;10.77;;
29246;SDS011;16272;48.188;9.964;2022-10-31T09:44:23;21.10;;;10.93;;
29246;SDS011;16272;48.188;9.964;2022-10-31T09:54:52;19.20;;;10.55;;
29246;SDS011;16272;48.188;9.964;2022-10-31T09:57:25;18.77;;;10.38;;
29246;SDS011;16272;48.188;9.964;2022-10-31T09:59:54;19.03;;;9.73;;
29246;SDS011;16272;48.188;9.964;2022-10-31T10:02:26;17.73;;;10.20;;
29246;SDS011;16272;48.188;9.964;2022-10-31T10:05:01;19.83;;;10.15;;
29246;SDS011;16272;48.188;9.964;2022-10-31T10:10:05;16.15;;;9.88;;
29246;SDS011;16272;48.188;9.964;2022-10-31T10:18:38;18.40;;;10.40;;
29246;SDS011;16272;48.188;9.964;2022-10-31T10:21:19;18.95;;;9.93;;
29246;SDS011;16272;48.188;9.964;2022-10-31T10:24:51;18.40;;;9.80;;
29246;SDS011;16272;48.188;9.964;2022-10-31T10:29:44;19.02;;;10.57;;
29246;SDS011;16272;48.188;9.964;2022-10-31T10:32:27;19.08;;;10.20;;
29246;SDS011;16272;48.188;9.964;2022-10-31T10:35:07;18.50;;;10.13;;
29246;SDS011;16272;48.188;9.964;2022-10-31T10:37:44;19.90;;;10.82;;
29246;SDS011;16272;48.188;9.964;2022-10-31T10:40:15;18.10;;;10.50;;
29246;SDS011;16272;48.188;9.964;2022-10-31T10:45:47;19.17;;;11.60;;
29246;SDS011;16272;48.188;9.964;2022-10-31T10:59:59;20.23;;;11.90;;
29246;SDS011;16272;48.188;9.964;2022-10-31T11:02:27;19.02;;;11.23;;
29246;SDS011;16272;48.188;9.964;2022-10-31T11:04:57;19.92;;;10.88;;
29246;SDS011;16272;48.188;9.964;2022-10-31T11:07:25;23.77;;;11.30;;
29246;SDS011;16272;48.188;9.964;2022-10-31T11:10:03;19.33;;;11.48;;
29246;SDS011;16272;48.188;9.964;2022-10-31T11:12:33;20.92;;;10.13;;
29246;SDS011;16272;48.188;9.964;2022-10-31T11:14:59;18.95;;;10.93;;
29246;SDS011;16272;48.188;9.964;2022-10-31T11:17:34;16.80;;;9.90;;
29246;SDS011;16272;48.188;9.964;2022-10-31T11:20:05;18.40;;;10.30;;
29246;SDS011;16272;48.188;9.964;2022-10-31T11:22:48;18.27;;;10.15;;
29246;SDS011;16272;48.188;9.964;2022-10-31T11:25:20;18.83;;;10.05;;
29246;SDS011;16272;48.188;9.964;2022-10-31T11:28:02;19.17;;;10.67;;
29246;SDS011;16272;48.188;9.964;2022-10-31T11:30:30;18.75;;;10.27;;
29246;SDS011;16272;48.188;9.964;2022-10-31T11:33:00;18.92;;;11.23;;
29246;SDS011;16272;48.188;9.964;2022-10-31T11:35:26;21.37;;;10.50;;
29246;SDS011;16272;48.188;9.964;2022-10-31T11:37:54;20.38;;;10.02;;
29246;SDS011;16272;48.188;9.964;2022-10-31T11:40:24;20.27;;;10.90;;
29246;SDS011;16272;48.188;9.964;2022-10-31T11:42:51;19.02;;;9.63;;
29246;SDS011;16272;48.188;9.964;2022-10-31T11:45:27;18.17;;;10.00;;
29246;SDS011;16272;48.188;9.964;2022-10-31T11:47:56;18.90;;;9.70;;
29246;SDS011;16272;48.188;9.964;2022-10-31T11:50:24;18.45;;;9.35;;
29246;SDS011;16272;48.188;9.964;2022-10-31T11:52:51;21.98;;;9.55;;
29246;SDS011;16272;48.188;9.964;2022-10-31T11:55:59;16.65;;;9.20;;
29246;SDS011;16272;48.188;9.964;2022-10-31T11:58:54;18.10;;;9.80;;
29246;SDS011;16272;48.188;9.964;2022-10-31T12:01:02;20.03;;;9.30;;
29246;SDS011;16272;48.188;9.964;2022-10-31T12:06:36;18.57;;;9.03;;
29246;SDS011;16272;48.188;9.964;2022-10-31T12:09:37;18.77;;;9.57;;
29246;SDS011;16272;48.188;9.964;2022-10-31T12:23:38;18.25;;;9.45;;
29246;SDS011;16272;48.188;9.964;2022-10-31T12:26:25;16.83;;;9.73;;
29246;SDS011;16272;48.188;9.964;2022-10-31T12:40:03;19.48;;;10.40;;
29246;SDS011;16272;48.188;9.964;2022-10-31T12:59:31;18.67;;;10.30;;
29246;SDS011;16272;48.188;9.964;2022-10-31T13:02:24;19.00;;;10.97;;
29246;SDS011;16272;48.188;9.964;2022-10-31T13:07:43;19.02;;;11.10;;
29246;SDS011;16272;48.188;9.964;2022-10-31T13:13:06;22.17;;;11.25;;
29246;SDS011;16272;48.188;9.964;2022-10-31T13:15:45;18.53;;;10.73;;
29246;SDS011;16272;48.188;9.964;2022-10-31T13:18:19;18.25;;;10.32;;
29246;SDS011;16272;48.188;9.964;2022-10-31T13:20:51;19.83;;;11.45;;
29246;SDS011;16272;48.188;9.964;2022-10-31T13:26:00;21.55;;;11.45;;
29246;SDS011;16272;48.188;9.964;2022-10-31T13:31:12;21.40;;;12.68;;
29246;SDS011;16272;48.188;9.964;2022-10-31T13:33:39;22.80;;;12.43;;
29246;SDS011;16272;48.188;9.964;2022-10-31T13:41:38;23.30;;;12.85;;
29246;SDS011;16272;48.188;9.964;2022-10-31T13:44:15;25.15;;;13.00;;
29246;SDS011;16272;48.188;9.964;2022-10-31T13:46:45;22.60;;;13.50;;
29246;SDS011;16272;48.188;9.964;2022-10-31T13:54:47;22.30;;;12.23;;
29246;SDS011;16272;48.188;9.964;2022-10-31T13:57:34;21.20;;;11.57;;
29246;SDS011;16272;48.188;9.964;2022-10-31T14:02:45;23.63;;;11.77;;
29246;SDS011;16272;48.188;9.964;2022-10-31T14:07:54;22.63;;;11.80;;
29246;SDS011;16272;48.188;9.964;2022-10-31T14:12:52;20.98;;;11.15;;
29246;SDS011;16272;48.188;9.964;2022-10-31T14:15:39;22.60;;;11.98;;
29246;SDS011;16272;48.188;9.964;2022-10-31T14:18:18;22.17;;;11.10;;
29246;SDS011;16272;48.188;9.964;2022-10-31T14:20:48;20.52;;;10.48;;
29246;SDS011;16272;48.188;9.964;2022-10-31T14:29:21;18.40;;;10.07;;
29246;SDS011;16272;48.188;9.964;2022-10-31T14:31:39;19.02;;;9.98;;
29246;SDS011;16272;48.188;9.964;2022-10-31T14:36:42;18.02;;;10.27;;
29246;SDS011;16272;48.188;9.964;2022-10-31T14:45:08;23.02;;;9.05;;
29246;SDS011;16272;48.188;9.964;2022-10-31T14:47:39;18.55;;;9.45;;
29246;SDS011;16272;48.188;9.964;2022-10-31T14:50:17;19.00;;;9.40;;
29246;SDS011;16272;48.188;9.964;2022-10-31T14:52:46;22.13;;;9.40;;
29246;SDS011;16272;48.188;9.964;2022-10-31T14:55:14;18.27;;;8.67;;
29246;SDS011;16272;48.188;9.964;2022-10-31T14:57:43;19.02;;;10.13;;
29246;SDS011;16272;48.188;9.964;2022-10-31T15:00:16;21.38;;;9.85;;
29246;SDS011;16272;48.188;9.964;2022-10-31T15:02:53;21.13;;;9.57;;
29246;SDS011;16272;48.188;9.964;2022-10-31T15:05:44;17.75;;;9.10;;
29246;SDS011;16272;48.188;9.964;2022-10-31T15:08:14;17.90;;;9.77;;
29246;SDS011;16272;48.188;9.964;2022-10-31T15:10:56;18.60;;;9.85;;
29246;SDS011;16272;48.188;9.964;2022-10-31T15:13:22;18.70;;;9.40;;
29246;SDS011;16272;48.188;9.964;2022-10-31T15:15:48;21.85;;;10.07;;
29246;SDS011;16272;48.188;9.964;2022-10-31T15:18:17;15.57;;;8.82;;
29246;SDS011;16272;48.188;9.964;2022-10-31T15:20:45;18.80;;;8.93;;
29246;SDS011;16272;48.188;9.964;2022-10-31T15:23:29;17.20;;;9.48;;
29246;SDS011;16272;48.188;9.964;2022-10-31T15:25:59;20.60;;;9.90;;
29246;SDS011;16272;48.188;9.964;2022-10-31T15:28:26;21.60;;;11.15;;
29246;SDS011;16272;48.188;9.964;2022-10-31T15:30:53;19.67;;;10.45;;
29246;SDS011;16272;48.188;9.964;2022-10-31T15:33:21;16.83;;;9.67;;
29246;SDS011;16272;48.188;9.964;2022-10-31T15:35:58;18.55;;;9.80;;
29246;SDS011;16272;48.188;9.964;2022-10-31T15:38:28;19.48;;;9.75;;
29246;SDS011;16272;48.188;9.964;2022-10-31T15:40:55;19.73;;;9.70;;
29246;SDS011;16272;48.188;9.964;2022-10-31T15:43:24;18.30;;;9.18;;
29246;SDS011;16272;48.188;9.964;2022-10-31T15:45:50;17.90;;;9.10;;
29246;SDS011;16272;48.188;9.964;2022-10-31T15:48:16;18.27;;;10.00;;
29246;SDS011;16272;48.188;9.964;2022-10-31T15:53:35;20.33;;;10.07;;
29246;SDS011;16272;48.188;9.964;2022-10-31T15:56:07;21.15;;;9.23;;
29246;SDS011;16272;48.188;9.964;2022-10-31T15:58:42;20.75;;;9.80;;
29246;SDS011;16272;48.188;9.964;2022-10-31T16:04:02;18.47;;;9.13;;
29246;SDS011;16272;48.188;9.964;2022-10-31T16:06:51;17.23;;;9.05;;
29246;SDS011;16272;48.188;9.964;2022-10-31T16:09:24;16.83;;;8.20;;
29246;SDS011;16272;48.188;9.964;2022-10-31T16:11:50;16.43;;;8.93;;
29246;SDS011;16272;48.188;9.964;2022-10-31T16:14:20;19.27;;;9.52;;
29246;SDS011;16272;48.188;9.964;2022-10-31T16:16:49;21.75;;;9.52;;
29246;SDS011;16272;48.188;9.964;2022-10-31T16:19:20;21.42;;;10.27;;
29246;SDS011;16272;48.188;9.964;2022-10-31T16:21:54;20.93;;;9.60;;
29246;SDS011;16272;48.188;9.964;2022-10-31T16:24:31;22.40;;;9.82;;
29246;SDS011;16272;48.188;9.964;2022-10-31T16:27:17;16.85;;;9.27;;
29246;SDS011;16272;48.188;9.964;2022-10-31T16:29:47;16.25;;;8.63;;
29246;SDS011;16272;48.188;9.964;2022-10-31T16:35:12;21.60;;;10.60;;
29246;SDS011;16272;48.188;9.964;2022-10-31T16:37:43;20.60;;;10.02;;
29246;SDS011;16272;48.188;9.964;2022-10-31T16:40:12;23.73;;;10.43;;
29246;SDS011;16272;48.188;9.964;2022-10-31T16:42:39;20.07;;;10.23;;
29246;SDS011;16272;48.188;9.964;2022-10-31T16:45:05;19.27;;;9.27;;
29246;SDS011;16272;48.188;9.964;2022-10-31T16:47:32;19.42;;;8.48;;
29246;SDS011;16272;48.188;9.964;2022-10-31T16:49:57;17.27;;;8.37;;
29246;SDS011;16272;48.188;9.964;2022-10-31T16:52:26;20.88;;;9.07;;
29246;SDS011;16272;48.188;9.964;2022-10-31T16:54:51;18.50;;;8.27;;
29246;SDS011;16272;48.188;9.964;2022-10-31T16:57:18;17.50;;;8.40;;
29246;SDS011;16272;48.188;9.964;2022-10-31T16:59:48;17.60;;;7.97;;
29246;SDS011;16272;48.188;9.964;2022-10-31T17:02:18;17.70;;;7.88;;
29246;SDS011;16272;48.188;9.964;2022-10-31T17:04:44;16.27;;;7.45;;
29246;SDS011;16272;48.188;9.964;2022-10-31T17:07:09;19.57;;;8.67;;
29246;SDS011;16272;48.188;9.964;2022-10-31T17:09:35;18.43;;;9.47;;
29246;SDS011;16272;48.188;9.964;2022-10-31T17:12:01;20.77;;;9.57;;
29246;SDS011;16272;48.188;9.964;2022-10-31T17:14:31;22.25;;;9.45;;
29246;SDS011;16272;48.188;9.964;2022-10-31T17:16:58;19.17;;;9.30;;
29246;SDS011;16272;48.188;9.964;2022-10-31T17:19:23;21.90;;;9.95;;
29246;SDS011;16272;48.188;9.964;2022-10-31T17:21:49;21.90;;;9.73;;
29246;SDS011;16272;48.188;9.964;2022-10-31T17:24:14;21.43;;;10.33;;
29246;SDS011;16272;48.188;9.964;2022-10-31T17:26:41;17.30;;;9.05;;
29246;SDS011;16272;48.188;9.964;2022-10-31T17:29:09;22.63;;;9.43;;
29246;SDS011;16272;48.188;9.964;2022-10-31T17:31:40;18.45;;;8.32;;
29246;SDS011;16272;48.188;9.964;2022-10-31T17:34:06;15.15;;;7.50;;
29246;SDS011;16272;48.188;9.964;2022-10-31T17:36:33;62.28;;;9.13;;
29246;SDS011;16272;48.188;9.964;2022-10-31T17:38:58;84.88;;;8.38;;
29246;SDS011;16272;48.188;9.964;2022-10-31T17:41:24;17.87;;;6.73;;
29246;SDS011;16272;48.188;9.964;2022-10-31T17:43:54;15.30;;;7.43;;
29246;SDS011;16272;48.188;9.964;2022-10-31T17:46:20;13.77;;;7.10;;
29246;SDS011;16272;48.188;9.964;2022-10-31T17:48:55;12.40;;;7.05;;